Time;durP1;ratioP1;P1;durP2;ratioP2;P2;SDS_P1;SDS_P2;PMS_P1;PMS_P2;Temp;Humidity;BMP_temperature;BMP_pressure;BME280_temperature;BME280_humidity;BME280_pressure;Samples;Min_cycle;Max_cycle;Signal;HPM_P1;HPM_P2
2022/09/25 00:01:33;;;;;;;4.15;2.90;;;9.40;99.90;;;;;;5092448;28;20020;-60
2022/09/25 00:03:59;;;;;;;3.33;3.00;;;9.40;99.90;;;;;;5092061;28;20027;-60
2022/09/25 00:06:27;;;;;;;3.55;2.60;;;9.30;99.90;;;;;;5091902;28;20390;-60
2022/09/25 00:08:53;;;;;;;4.03;2.95;;;9.30;99.90;;;;;;5091749;28;20047;-60
2022/09/25 00:11:22;;;;;;;4.55;2.83;;;9.30;99.90;;;;;;5092056;28;20451;-60
2022/09/25 00:13:49;;;;;;;6.10;2.95;;;9.20;99.90;;;;;;5092000;28;20028;-60
2022/09/25 00:16:17;;;;;;;6.47;3.03;;;9.20;99.90;;;;;;5091952;28;20032;-60
2022/09/25 00:21:30;;;;;;;5.32;3.03;;;9.10;99.90;;;;;;5092143;28;20125;-60
2022/09/25 00:23:59;;;;;;;6.38;3.35;;;9.00;99.90;;;;;;5091917;28;20028;-60
2022/09/25 00:26:27;;;;;;;7.32;3.40;;;9.00;99.90;;;;;;5092075;28;20036;-60
2022/09/25 00:28:54;;;;;;;5.78;3.65;;;9.00;99.90;;;;;;5091692;28;20036;-60
2022/09/25 00:31:23;;;;;;;4.45;3.22;;;8.90;99.90;;;;;;5091770;28;20156;-60
2022/09/25 00:33:55;;;;;;;4.28;2.85;;;8.90;99.90;;;;;;5091796;28;20034;-60
2022/09/25 00:36:20;;;;;;;4.85;3.10;;;8.90;99.90;;;;;;5091634;28;20590;-60
2022/09/25 00:38:47;;;;;;;5.32;3.50;;;8.80;99.90;;;;;;5092003;28;20112;-60
2022/09/25 00:41:16;;;;;;;6.88;3.42;;;8.80;99.90;;;;;;5091752;28;20028;-59
2022/09/25 00:43:43;;;;;;;5.50;2.90;;;8.80;99.90;;;;;;5091414;28;20127;-60
2022/09/25 00:46:27;;;;;;;5.57;2.67;;;8.70;99.90;;;;;;5091666;28;20012;-60
2022/09/25 00:49:14;;;;;;;4.15;3.00;;;8.70;99.90;;;;;;5091337;28;20040;-60
2022/09/25 00:51:43;;;;;;;3.72;2.88;;;8.50;99.90;;;;;;5091800;28;20020;-60
2022/09/25 00:54:26;;;;;;;4.45;2.60;;;8.50;99.90;;;;;;5091539;28;20075;-60
2022/09/25 00:56:52;;;;;;;3.57;2.80;;;8.50;99.90;;;;;;5091240;28;20024;-60
2022/09/25 00:59:32;;;;;;;6.32;3.10;;;8.60;99.90;;;;;;5094590;28;20032;-60
2022/09/25 01:01:58;;;;;;;5.78;3.03;;;8.50;99.90;;;;;;5095239;28;20027;-60
2022/09/25 01:04:27;;;;;;;6.38;3.05;;;8.30;99.90;;;;;;5095564;28;20081;-60
2022/09/25 01:06:54;;;;;;;6.38;3.63;;;8.20;99.90;;;;;;5093651;28;20452;-60
2022/09/25 01:09:20;;;;;;;6.32;3.75;;;8.20;99.90;;;;;;5094891;28;20111;-60
2022/09/25 01:11:46;;;;;;;4.75;3.95;;;8.20;99.90;;;;;;5094674;28;20020;-60
2022/09/25 01:14:16;;;;;;;4.78;3.80;;;8.30;99.90;;;;;;5095228;28;20427;-60
2022/09/25 01:16:47;;;;;;;4.32;3.33;;;8.30;99.90;;;;;;5095224;28;20020;-60
2022/09/25 01:19:31;;;;;;;5.80;3.33;;;8.30;99.90;;;;;;5094877;28;20031;-60
2022/09/25 01:22:09;;;;;;;5.13;3.28;;;8.30;99.90;;;;;;5094792;28;20094;-60
2022/09/25 01:24:54;;;;;;;6.18;2.97;;;8.30;99.90;;;;;;5094807;28;20028;-60
2022/09/25 01:27:56;;;;;;;4.70;3.33;;;8.20;99.90;;;;;;5093375;28;20111;-60
2022/09/25 01:30:22;;;;;;;5.20;3.65;;;7.90;99.90;;;;;;5095042;28;20036;-60
2022/09/25 01:33:06;;;;;;;5.00;3.42;;;7.90;99.90;;;;;;5094606;28;20099;-60
2022/09/25 01:35:40;;;;;;;4.50;3.60;;;7.90;99.90;;;;;;5094502;28;20035;-60
2022/09/25 01:38:15;;;;;;;5.30;3.72;;;8.00;99.90;;;;;;5094362;28;20146;-60
2022/09/25 01:41:00;;;;;;;6.00;3.47;;;8.10;99.90;;;;;;5092800;28;20032;-60
2022/09/25 01:43:36;;;;;;;5.03;3.70;;;8.00;99.90;;;;;;5094340;28;20481;-60
2022/09/25 01:46:17;;;;;;;3.95;3.58;;;7.90;99.90;;;;;;5094263;28;20060;-60
2022/09/25 01:48:47;;;;;;;4.32;3.75;;;7.90;99.90;;;;;;5093882;28;20139;-60
2022/09/25 01:51:21;;;;;;;6.53;3.97;;;7.90;99.90;;;;;;5094791;28;20024;-60
2022/09/25 01:53:52;;;;;;;6.05;4.47;;;7.90;99.90;;;;;;5094339;28;20043;-59
2022/09/25 01:56:32;;;;;;;7.22;4.45;;;7.90;99.90;;;;;;5093621;28;20111;-60
2022/09/25 01:59:22;;;;;;;12.25;6.90;;;7.80;99.90;;;;;;5092898;28;20031;-59
2022/09/25 02:01:48;;;;;;;8.43;6.78;;;7.70;99.90;;;;;;5093508;28;20027;-59
2022/09/25 02:04:28;;;;;;;9.85;7.28;;;7.70;99.90;;;;;;5093669;28;20027;-60
2022/09/25 02:06:59;;;;;;;9.75;7.90;;;7.60;99.90;;;;;;5092939;28;20035;-60
2022/09/25 02:09:38;;;;;;;10.07;7.65;;;7.50;99.90;;;;;;5092800;28;20036;-60
2022/09/25 02:12:13;;;;;;;9.65;8.02;;;7.50;99.90;;;;;;5093974;28;20028;-60
2022/09/25 02:15:08;;;;;;;10.98;7.85;;;7.60;99.90;;;;;;5093937;28;20039;-60
2022/09/25 02:20:35;;;;;;;7.63;5.20;;;7.50;99.90;;;;;;5094115;28;20031;-60
2022/09/25 02:23:28;;;;;;;6.22;4.93;;;7.30;99.90;;;;;;5093312;28;20023;-60
2022/09/25 02:26:16;;;;;;;5.97;5.07;;;7.30;99.90;;;;;;5093608;28;20028;-60
2022/09/25 02:28:42;;;;;;;7.82;5.65;;;7.40;99.90;;;;;;5093416;28;20032;-60
2022/09/25 02:31:11;;;;;;;9.25;6.57;;;7.50;99.90;;;;;;5093487;28;20035;-60
2022/09/25 02:33:37;;;;;;;8.85;6.13;;;7.40;99.90;;;;;;5093143;28;20016;-60
2022/09/25 02:36:05;;;;;;;7.13;5.70;;;7.20;99.90;;;;;;5093727;28;20107;-60
2022/09/25 02:38:32;;;;;;;6.97;5.72;;;7.10;99.90;;;;;;5092990;28;20160;-60
2022/09/25 02:41:20;;;;;;;9.23;6.00;;;7.10;99.90;;;;;;5093207;28;20051;-60
2022/09/25 02:44:04;;;;;;;7.00;6.25;;;7.20;99.90;;;;;;5093096;28;20092;-60
2022/09/25 02:47:12;;;;;;;7.78;6.30;;;7.10;99.90;;;;;;5093551;28;20035;-60
2022/09/25 02:49:47;;;;;;;7.68;5.93;;;7.10;99.90;;;;;;5093056;28;20043;-60
2022/09/25 02:52:21;;;;;;;7.18;5.50;;;7.20;99.90;;;;;;5092673;28;20091;-59
2022/09/25 02:54:55;;;;;;;7.00;5.88;;;7.20;99.90;;;;;;5092792;28;20048;-59
2022/09/25 02:57:41;;;;;;;;;;;7.10;99.90;;;;;;5093353;28;20492;-59
2022/09/25 03:00:08;;;;;;;9.38;6.60;;;7.10;99.90;;;;;;5092793;28;20365;-59
2022/09/25 03:02:36;;;;;;;9.95;6.22;;;7.10;99.90;;;;;;5092781;28;20402;-60
2022/09/25 03:05:04;;;;;;;8.27;6.07;;;7.10;99.90;;;;;;5092642;28;20024;-61
2022/09/25 03:08:36;;;;;;;7.18;6.13;;;7.00;99.90;;;;;;5092513;28;20035;-61
2022/09/25 03:10:18;;;;;;;8.10;6.30;;;7.10;99.90;;;;;;5092700;28;20044;-61
2022/09/25 03:12:44;;;;;;;10.55;6.82;;;7.10;99.90;;;;;;5093011;28;20052;-60
2022/09/25 03:15:11;;;;;;;10.05;7.28;;;7.00;99.90;;;;;;5092982;28;20055;-61
2022/09/25 03:17:38;;;;;;;8.25;7.00;;;7.00;99.90;;;;;;5092591;28;20109;-61
2022/09/25 03:20:05;;;;;;;10.07;6.78;;;7.00;99.90;;;;;;5092258;28;20517;-61
2022/09/25 03:22:31;;;;;;;9.60;6.78;;;7.00;99.90;;;;;;5092006;28;20024;-60
2022/09/25 03:24:57;;;;;;;11.43;7.75;;;7.00;99.90;;;;;;5093095;28;20389;-60
2022/09/25 03:27:27;;;;;;;7.47;5.35;;;7.00;99.90;;;;;;5092459;28;20381;-60
2022/09/25 03:29:54;;;;;;;6.03;4.35;;;6.90;99.90;;;;;;5092222;28;20566;-61
2022/09/25 03:32:20;;;;;;;7.68;4.70;;;6.90;99.90;;;;;;5092331;28;20017;-61
2022/09/25 03:34:46;;;;;;;5.75;4.13;;;6.80;99.90;;;;;;5092325;28;20040;-60
2022/09/25 03:37:12;;;;;;;5.78;4.50;;;6.80;99.90;;;;;;5091973;28;20068;-60
2022/09/25 03:39:37;;;;;;;6.20;4.20;;;6.80;99.90;;;;;;5092207;28;20034;-60
2022/09/25 03:42:04;;;;;;;6.53;4.07;;;6.90;99.90;;;;;;5092644;28;20077;-61
2022/09/25 03:44:30;;;;;;;5.65;3.88;;;6.80;99.90;;;;;;5091926;28;20024;-61
2022/09/25 03:46:56;;;;;;;5.47;3.47;;;6.80;99.90;;;;;;5092773;28;20098;-61
2022/09/25 03:49:22;;;;;;;5.28;3.60;;;6.80;99.90;;;;;;5091728;28;20134;-60
2022/09/25 03:51:48;;;;;;;4.50;3.30;;;6.80;99.90;;;;;;5091927;28;20020;-61
2022/09/25 03:54:14;;;;;;;7.13;3.40;;;6.80;99.90;;;;;;5091949;28;20040;-60
2022/09/25 03:56:40;;;;;;;6.63;4.35;;;6.70;99.90;;;;;;5092043;28;20036;-60
2022/09/25 03:59:06;;;;;;;5.60;3.80;;;6.70;99.90;;;;;;5092099;28;20470;-60
2022/09/25 04:01:32;;;;;;;5.13;4.00;;;6.70;99.90;;;;;;5092182;28;20077;-60
2022/09/25 04:04:01;;;;;;;6.35;4.40;;;6.70;99.90;;;;;;5092108;28;20028;-61
2022/09/25 04:06:27;;;;;;;5.07;4.32;;;6.70;99.90;;;;;;5091576;28;20035;-60
2022/09/25 04:08:53;;;;;;;5.25;3.88;;;6.70;99.90;;;;;;5091821;28;20036;-60
2022/09/25 04:11:21;;;;;;;5.88;4.00;;;6.60;99.90;;;;;;5091865;28;20020;-61
2022/09/25 04:13:47;;;;;;;5.50;3.80;;;6.60;99.90;;;;;;5092377;28;20063;-60
2022/09/25 04:16:15;;;;;;;4.10;3.65;;;6.60;99.90;;;;;;5091933;28;20477;-60
2022/09/25 04:18:41;;;;;;;6.50;3.92;;;6.50;99.90;;;;;;5091917;28;20111;-61
2022/09/25 04:21:09;;;;;;;9.05;4.70;;;6.50;99.90;;;;;;5091677;28;20050;-60
2022/09/25 04:23:36;;;;;;;6.45;4.22;;;6.50;99.90;;;;;;5091992;28;20032;-60
2022/09/25 04:26:01;;;;;;;4.72;4.03;;;6.50;99.90;;;;;;5091941;28;20394;-61
2022/09/25 04:28:30;;;;;;;6.20;4.15;;;6.40;99.90;;;;;;5092026;28;20028;-61
2022/09/25 04:30:55;;;;;;;6.68;4.30;;;6.30;99.90;;;;;;5091730;28;20435;-60
2022/09/25 04:36:06;;;;;;;5.88;4.40;;;6.20;99.90;;;;;;5095649;28;20039;-60
2022/09/25 04:38:31;;;;;;;7.38;5.18;;;6.30;99.90;;;;;;5095755;28;20020;-61
2022/09/25 04:40:59;;;;;;;7.63;5.53;;;6.30;99.90;;;;;;5095604;28;20397;-61
2022/09/25 04:43:26;;;;;;;6.85;5.18;;;6.30;99.90;;;;;;5095789;28;20028;-61
2022/09/25 04:45:52;;;;;;;8.90;5.50;;;6.20;99.90;;;;;;5095498;28;20070;-61
2022/09/25 04:48:18;;;;;;;9.35;6.63;;;6.20;99.90;;;;;;5094855;28;20036;-60
2022/09/25 04:50:50;;;;;;;11.60;6.40;;;6.20;99.90;;;;;;5095424;28;20028;-61
2022/09/25 04:53:16;;;;;;;9.93;7.45;;;6.20;99.90;;;;;;5095202;28;20028;-61
2022/09/25 04:55:42;;;;;;;9.45;6.40;;;6.20;99.90;;;;;;5095488;28;20024;-61
2022/09/25 04:58:09;;;;;;;15.50;9.40;;;6.20;99.90;;;;;;5095093;28;20032;-61
2022/09/25 05:00:36;;;;;;;17.95;10.98;;;6.10;99.90;;;;;;5095295;28;20492;-61
2022/09/25 05:03:03;;;;;;;17.27;11.48;;;6.10;99.90;;;;;;5095253;28;20039;-61
2022/09/25 05:05:29;;;;;;;16.38;10.23;;;6.10;99.90;;;;;;5094905;28;20490;-61
2022/09/25 05:08:00;;;;;;;15.48;10.75;;;6.10;99.90;;;;;;5095014;28;20035;-61
2022/09/25 05:10:29;;;;;;;17.85;10.05;;;6.10;99.90;;;;;;5094994;28;20050;-61
2022/09/25 05:12:59;;;;;;;12.95;9.20;;;6.00;99.90;;;;;;5094840;28;20054;-60
2022/09/25 05:15:27;;;;;;;13.30;9.82;;;6.00;99.90;;;;;;5094881;28;20028;-60
2022/09/25 05:18:06;;;;;;;14.85;10.98;;;5.90;99.90;;;;;;5094516;28;20024;-60
2022/09/25 05:20:34;;;;;;;10.63;8.20;;;5.90;99.90;;;;;;5094814;28;20057;-60
2022/09/25 05:23:03;;;;;;;11.63;8.60;;;5.90;99.90;;;;;;5094856;28;20437;-61
2022/09/25 05:25:30;;;;;;;9.95;7.97;;;5.90;99.90;;;;;;5093799;28;20032;-60
2022/09/25 05:27:57;;;;;;;8.60;7.50;;;5.90;99.90;;;;;;5094501;28;20027;-61
2022/09/25 05:30:24;;;;;;;11.40;7.97;;;5.90;99.90;;;;;;5094717;28;20024;-60
2022/09/25 05:32:51;;;;;;;9.23;7.53;;;5.90;99.90;;;;;;5094220;28;20065;-60
2022/09/25 05:35:19;;;;;;;8.32;7.00;;;5.90;99.90;;;;;;5094541;28;20036;-61
2022/09/25 05:37:45;;;;;;;8.40;6.70;;;5.90;99.90;;;;;;5094897;28;20379;-60
2022/09/25 05:40:11;;;;;;;9.38;6.88;;;5.90;99.90;;;;;;5094377;28;20035;-60
2022/09/25 05:42:37;;;;;;;7.45;6.70;;;5.90;99.90;;;;;;5094499;28;20024;-60
2022/09/25 05:45:03;;;;;;;8.88;7.13;;;5.80;99.90;;;;;;5093808;28;20032;-61
2022/09/25 05:47:29;;;;;;;9.00;6.43;;;5.90;99.90;;;;;;5094162;28;20032;-60
2022/09/25 05:49:54;;;;;;;12.60;7.30;;;5.80;99.90;;;;;;5094021;28;20032;-60
2022/09/25 05:52:20;;;;;;;8.15;7.35;;;5.80;99.90;;;;;;5094425;28;20474;-60
2022/09/25 05:54:46;;;;;;;14.13;9.80;;;5.70;99.90;;;;;;5094143;28;20045;-60
2022/09/25 05:57:11;;;;;;;16.52;10.45;;;5.80;99.90;;;;;;5094423;28;20073;-60
2022/09/25 05:59:37;;;;;;;11.68;9.57;;;5.80;99.90;;;;;;5093834;28;20486;-60
2022/09/25 06:02:03;;;;;;;12.35;9.93;;;5.90;99.90;;;;;;5093613;28;20073;-61
2022/09/25 06:04:28;;;;;;;11.85;9.93;;;5.90;99.90;;;;;;5094003;28;20103;-61
2022/09/25 06:06:54;;;;;;;33.70;15.85;;;5.90;99.90;;;;;;5093931;28;20074;-61
2022/09/25 06:09:20;;;;;;;20.08;13.70;;;5.90;99.90;;;;;;5093809;28;20494;-61
2022/09/25 06:11:46;;;;;;;21.40;12.70;;;5.80;99.90;;;;;;5093652;28;20028;-60
2022/09/25 06:14:13;;;;;;;17.35;12.48;;;5.90;99.90;;;;;;5093831;28;20035;-60
2022/09/25 06:16:39;;;;;;;23.60;14.05;;;5.90;99.90;;;;;;5093398;28;20051;-61
2022/09/25 06:19:05;;;;;;;17.58;12.73;;;6.10;99.90;;;;;;5094094;28;20051;-61
2022/09/25 06:21:31;;;;;;;16.90;11.13;;;6.20;99.90;;;;;;5093538;28;20491;-61
2022/09/25 06:23:57;;;;;;;12.52;9.32;;;6.30;99.90;;;;;;5093569;28;20424;-61
2022/09/25 06:26:24;;;;;;;12.25;8.90;;;6.40;99.90;;;;;;5093348;28;20024;-61
2022/09/25 06:28:49;;;;;;;11.18;8.85;;;6.50;99.90;;;;;;5093458;28;20417;-61
2022/09/25 06:31:15;;;;;;;13.90;9.25;;;6.60;99.90;;;;;;5093263;28;20099;-60
2022/09/25 06:33:42;;;;;;;15.23;10.20;;;6.60;99.90;;;;;;5093339;28;20028;-60
2022/09/25 06:36:08;;;;;;;11.68;9.23;;;6.70;99.90;;;;;;5093352;28;20025;-60
2022/09/25 06:38:34;;;;;;;10.77;9.20;;;6.90;99.90;;;;;;5093369;28;20073;-60
2022/09/25 06:40:59;;;;;;;9.25;8.00;;;7.10;99.90;;;;;;5093606;28;20024;-60
2022/09/25 06:43:26;;;;;;;10.80;8.60;;;7.40;99.90;;;;;;5093246;28;20021;-61
2022/09/25 06:45:51;;;;;;;13.85;9.23;;;7.60;99.90;;;;;;5092645;28;20555;-60
2022/09/25 06:48:17;;;;;;;10.63;9.52;;;7.40;99.90;;;;;;5092870;28;20087;-60
2022/09/25 06:50:45;;;;;;;10.35;9.25;;;7.70;99.90;;;;;;5093470;28;20032;-61
2022/09/25 06:53:12;;;;;;;9.63;8.40;;;7.90;99.90;;;;;;5093067;28;20166;-60
2022/09/25 06:55:38;;;;;;;13.25;8.88;;;8.10;99.90;;;;;;5092121;28;20072;-61
2022/09/25 06:58:05;;;;;;;10.73;8.30;;;8.50;99.90;;;;;;5092838;28;20022;-61
2022/09/25 07:00:33;;;;;;;9.40;7.63;;;9.00;99.90;;;;;;5092630;28;20052;-60
2022/09/25 07:05:46;;;;;;;8.07;7.18;;;9.60;99.90;;;;;;5092966;28;20452;-61
2022/09/25 07:08:13;;;;;;;8.35;6.55;;;10.60;99.90;;;;;;5093033;28;20020;-61
2022/09/25 07:10:39;;;;;;;11.90;6.43;;;10.70;99.90;;;;;;5092645;28;20111;-61
2022/09/25 07:13:05;;;;;;;6.60;6.00;;;11.00;99.90;;;;;;5092445;28;20461;-61
2022/09/25 07:15:31;;;;;;;6.65;5.82;;;11.20;99.90;;;;;;5092975;28;20116;-61
2022/09/25 07:17:56;;;;;;;5.97;5.10;;;11.60;99.90;;;;;;5092604;28;20095;-61
2022/09/25 07:20:22;;;;;;;5.97;5.38;;;12.90;99.90;;;;;;5092395;28;20020;-60
2022/09/25 07:22:48;;;;;;;5.97;5.18;;;13.40;99.90;;;;;;5092775;28;20059;-60
2022/09/25 07:25:13;;;;;;;4.93;4.43;;;13.80;99.90;;;;;;5091812;28;20022;-61
2022/09/25 07:27:39;;;;;;;4.95;4.55;;;14.40;99.90;;;;;;5091154;28;20106;-60
2022/09/25 07:30:06;;;;;;;4.63;4.20;;;15.30;99.90;;;;;;5092714;28;20448;-61
2022/09/25 07:32:32;;;;;;;4.38;4.00;;;16.00;99.90;;;;;;5092226;28;20080;-61
2022/09/25 07:34:58;;;;;;;4.32;3.80;;;16.60;99.90;;;;;;5092185;28;20017;-61
2022/09/25 07:37:24;;;;;;;3.10;2.80;;;17.10;99.90;;;;;;5092156;28;20024;-61
2022/09/25 07:39:49;;;;;;;3.92;3.28;;;17.50;99.90;;;;;;5092517;28;20030;-61
2022/09/25 07:42:16;;;;;;;4.20;3.80;;;17.80;99.90;;;;;;5092150;28;20107;-61
2022/09/25 07:44:42;;;;;;;3.75;3.42;;;17.80;99.90;;;;;;5092212;28;20528;-60
2022/09/25 07:47:08;;;;;;;3.97;3.67;;;18.20;99.90;;;;;;5092112;28;20024;-60
2022/09/25 07:49:34;;;;;;;4.03;3.50;;;18.80;99.90;;;;;;5092380;28;20044;-61
2022/09/25 07:52:01;;;;;;;4.05;3.40;;;19.50;99.90;;;;;;5092007;28;20031;-61
2022/09/25 07:54:26;;;;;;;3.85;3.30;;;20.00;99.90;;;;;;5092103;28;20052;-61
2022/09/25 07:56:52;;;;;;;3.40;3.10;;;20.30;99.90;;;;;;5091791;28;20563;-61
2022/09/25 07:59:18;;;;;;;3.80;3.50;;;20.80;99.90;;;;;;5091904;28;20035;-61
2022/09/25 08:01:44;;;;;;;3.50;3.17;;;19.60;99.90;;;;;;5092466;28;20024;-61
2022/09/25 08:04:10;;;;;;;3.13;2.70;;;20.10;99.90;;;;;;5092068;28;20028;-61
2022/09/25 08:06:37;;;;;;;3.67;3.00;;;20.50;99.90;;;;;;5092183;28;20032;-61
2022/09/25 08:09:03;;;;;;;3.78;3.15;;;20.90;99.90;;;;;;5096018;28;20491;-61
2022/09/25 08:11:30;;;;;;;2.97;2.10;;;20.90;99.90;;;;;;5095725;28;20020;-61
2022/09/25 08:13:56;;;;;;;3.80;3.40;;;22.70;99.90;;;;;;5096562;28;20399;-61
2022/09/25 08:16:22;;;;;;;5.53;3.20;;;21.10;99.90;;;;;;5096280;28;20099;-61
2022/09/25 08:18:49;;;;;;;3.90;3.05;;;21.40;99.90;;;;;;5094644;28;20138;-61
2022/09/25 08:21:17;;;;;;;2.97;2.67;;;23.30;99.90;;;;;;5096100;28;20024;-61
2022/09/25 08:23:48;;;;;;;4.00;3.03;;;23.40;99.80;;;;;;5095627;28;20496;-60
2022/09/25 08:26:15;;;;;;;4.07;2.92;;;25.30;98.20;;;;;;5095417;28;20111;-61
2022/09/25 08:28:40;;;;;;;3.63;2.90;;;24.90;96.60;;;;;;5096039;28;20035;-60
2022/09/25 08:31:07;;;;;;;3.10;2.80;;;24.00;97.50;;;;;;5095643;28;20500;-60
2022/09/25 08:33:33;;;;;;;3.90;2.42;;;25.40;96.10;;;;;;5095172;28;20031;-59
2022/09/25 08:36:01;;;;;;;1.65;1.55;;;27.30;94.70;;;;;;5102241;28;20103;-59
2022/09/25 08:38:28;;;;;;;3.20;1.90;;;26.20;91.30;;;;;;5104387;28;20030;-59
2022/09/25 08:41:06;;;;;;;3.50;2.15;;;25.10;92.70;;;;;;5097941;28;20039;-59
2022/09/25 08:43:36;;;;;;;3.15;2.40;;;25.00;92.90;;;;;;5104316;28;20024;-60
2022/09/25 08:49:08;;;;;;;3.45;2.50;;;28.00;91.20;;;;;;5101222;28;20053;-59
2022/09/25 08:51:39;;;;;;;3.17;2.40;;;27.10;93.00;;;;;;5103234;28;20481;-59
2022/09/25 08:54:06;;;;;;;3.72;2.75;;;28.40;91.50;;;;;;5102447;28;20123;-59
2022/09/25 08:56:34;;;;;;;2.72;2.08;;;28.50;91.30;;;;;;5103495;28;20413;-59
2022/09/25 08:59:34;;;;;;;3.70;2.55;;;26.70;90.90;;;;;;5104036;28;20428;-59
2022/09/25 09:02:08;;;;;;;2.60;2.40;;;28.50;91.70;;;;;;5102630;28;20059;-59
2022/09/25 09:04:48;;;;;;;3.47;2.63;;;28.30;90.50;;;;;;5103252;28;20513;-59
2022/09/25 09:07:22;;;;;;;5.55;3.05;;;29.00;90.00;;;;;;5101387;28;20019;-59
2022/09/25 09:09:50;;;;;;;2.47;2.28;;;28.70;89.00;;;;;;5104390;28;20032;-59
2022/09/25 09:12:18;;;;;;;2.97;2.67;;;29.40;86.60;;;;;;5100441;28;20024;-61
2022/09/25 09:14:50;;;;;;;4.05;2.30;;;29.30;89.40;;;;;;5095531;28;20028;-60
2022/09/25 09:17:21;;;;;;;2.58;1.88;;;28.40;88.00;;;;;;5094927;28;20028;-61
2022/09/25 09:19:59;;;;;;;3.35;1.98;;;27.60;87.10;;;;;;5093566;28;20081;-59
2022/09/25 09:22:35;;;;;;;2.83;2.05;;;28.10;88.80;;;;;;5093503;28;20558;-60
2022/09/25 09:25:15;;;;;;;3.47;2.15;;;30.30;84.10;;;;;;5092554;28;20456;-60
2022/09/25 09:28:08;;;;;;;3.90;2.22;;;27.90;88.20;;;;;;5094219;28;20099;-59
2022/09/25 09:30:58;;;;;;;4.00;2.33;;;28.80;90.20;;;;;;5093932;28;20123;-60
2022/09/25 09:33:33;;;;;;;3.03;2.00;;;28.60;90.20;;;;;;5093720;28;20672;-60
2022/09/25 09:36:26;;;;;;;6.85;2.17;;;32.20;86.20;;;;;;5094488;28;20024;-59
2022/09/25 09:39:03;;;;;;;8.87;2.37;;;32.10;80.90;;;;;;5094544;28;20024;-59
2022/09/25 09:41:41;;;;;;;4.32;2.10;;;31.90;80.40;;;;;;5093631;28;20016;-59
2022/09/25 09:44:31;;;;;;;4.50;2.10;;;32.40;82.40;;;;;;5093029;28;20039;-60
2022/09/25 09:47:21;;;;;;;18.13;14.07;;;33.10;80.10;;;;;;5094208;28;20055;-59
2022/09/25 09:50:16;;;;;;;3.30;2.33;;;32.40;79.00;;;;;;5093622;28;20044;-58
2022/09/25 09:52:44;;;;;;;20.05;15.55;;;33.70;77.80;;;;;;5029646;28;20033;-58
2022/09/25 09:55:18;;;;;;;9.85;7.22;;;33.20;77.70;;;;;;5031442;28;20120;-58
2022/09/25 09:57:55;;;;;;;3.45;2.13;;;32.60;77.20;;;;;;5031662;28;20026;-59
2022/09/25 10:00:23;;;;;;;4.57;2.00;;;32.90;74.90;;;;;;5031740;28;20033;-60
2022/09/25 10:02:53;;;;;;;18.13;14.48;;;32.60;73.20;;;;;;5031747;28;20389;-59
2022/09/25 10:05:38;;;;;;;19.17;12.80;;;34.40;73.00;;;;;;5031325;28;20404;-60
2022/09/25 10:08:04;;;;;;;10.68;6.47;;;34.60;73.70;;;;;;5031216;28;20041;-60
2022/09/25 10:10:42;;;;;;;8.40;4.32;;;34.20;73.40;;;;;;5031319;28;20041;-59
2022/09/25 10:13:13;;;;;;;11.75;9.30;;;32.00;73.80;;;;;;5031734;28;20060;-59
2022/09/25 10:16:10;;;;;;;4.80;2.33;;;32.20;73.70;;;;;;5031770;28;20033;-59
2022/09/25 10:18:45;;;;;;;4.35;2.00;;;35.00;70.50;;;;;;5022381;28;20419;-59
2022/09/25 10:21:20;;;;;;;3.58;1.70;;;36.50;68.10;;;;;;5029766;28;20109;-59
2022/09/25 10:23:45;;;;;;;5.57;3.15;;;36.20;67.70;;;;;;5029486;28;20038;-59
2022/09/25 10:26:36;;;;;;;3.97;2.72;;;35.80;70.00;;;;;;5030968;28;20032;-59
2022/09/25 10:29:25;;;;;;;3.42;1.90;;;36.90;66.30;;;;;;5017809;28;20136;-59
2022/09/25 10:32:02;;;;;;;4.60;2.00;;;35.60;68.80;;;;;;5070666;28;20094;-59
2022/09/25 10:34:30;;;;;;;3.20;1.65;;;36.00;69.70;;;;;;5070621;28;20045;-58
2022/09/25 10:36:56;;;;;;;3.38;2.05;;;36.40;65.80;;;;;;5070685;28;20017;-59
2022/09/25 10:39:34;;;;;;;5.25;2.28;;;38.40;65.80;;;;;;5070487;28;20170;-59
2022/09/25 10:42:06;;;;;;;5.97;1.73;;;36.30;65.20;;;;;;5070629;28;20040;-59
2022/09/25 10:44:34;;;;;;;2.67;1.42;;;32.30;67.90;;;;;;5069850;28;20112;-59
2022/09/25 10:50:21;;;;;;;2.88;1.90;;;34.80;66.50;;;;;;5029310;28;20128;-59
2022/09/25 10:52:58;;;;;;;4.32;1.60;;;36.10;66.90;;;;;;5028631;28;20037;-58
2022/09/25 10:55:36;;;;;;;6.78;2.00;;;35.50;65.70;;;;;;5030089;28;20443;-59
2022/09/25 10:58:28;;;;;;;4.60;1.63;;;36.10;64.70;;;;;;5029977;28;20377;-58
2022/09/25 11:01:00;;;;;;;4.57;1.60;;;37.90;63.00;;;;;;5029435;28;20113;-58
2022/09/25 11:03:28;;;;;;;2.72;1.45;;;33.70;64.60;;;;;;5030429;28;20087;-58
2022/09/25 11:06:01;;;;;;;6.80;1.95;;;35.20;64.30;;;;;;5055448;28;20036;-59
2022/09/25 11:08:29;;;;;;;2.92;1.60;;;34.70;66.20;;;;;;5092755;28;20024;-59
2022/09/25 11:10:57;;;;;;;4.07;1.60;;;32.90;66.20;;;;;;5092347;28;20040;-59
2022/09/25 11:13:32;;;;;;;4.57;1.83;;;32.40;65.90;;;;;;5092461;28;20024;-60
2022/09/25 11:16:01;;;;;;;4.60;1.50;;;32.40;66.20;;;;;;5092210;28;20047;-59
2022/09/25 11:18:45;;;;;;;3.15;1.60;;;32.10;68.90;;;;;;5092519;28;20016;-59
2022/09/25 11:21:42;;;;;;;1.85;1.23;;;29.50;70.50;;;;;;5092323;28;20055;-59
2022/09/25 11:24:20;;;;;;;2.58;1.33;;;29.70;70.10;;;;;;5010136;28;20062;-59
2022/09/25 11:27:01;;;;;;;3.00;1.48;;;28.70;71.70;;;;;;5009696;28;20121;-58
2022/09/25 11:29:56;;;;;;;2.75;1.60;;;27.00;73.10;;;;;;5009985;28;20048;-59
2022/09/25 11:32:28;;;;;;;3.60;1.50;;;27.20;74.40;;;;;;5008682;28;20045;-58
2022/09/25 11:35:18;;;;;;;2.35;1.30;;;27.20;73.50;;;;;;5009188;28;20049;-58
2022/09/25 11:38:05;;;;;;;2.70;1.20;;;29.50;69.70;;;;;;5010182;28;20041;-58
2022/09/25 11:43:56;;;;;;;3.28;1.50;;;27.60;74.80;;;;;;5008733;28;20100;-58
2022/09/25 11:46:47;;;;;;;4.20;1.58;;;25.90;74.60;;;;;;5010040;28;20505;-61
2022/09/25 11:49:17;;;;;;;2.60;1.23;;;25.60;73.00;;;;;;5000422;28;20082;-58
2022/09/25 11:52:02;;;;;;;2.42;1.15;;;25.20;73.20;;;;;;5010155;28;20030;-60
2022/09/25 11:54:43;;;;;;;2.90;1.20;;;25.50;72.60;;;;;;5009841;28;20064;-60
2022/09/25 11:57:34;;;;;;;2.03;1.13;;;26.10;71.20;;;;;;5009724;28;20025;-60
2022/09/25 12:00:18;;;;;;;1.92;1.17;;;26.40;72.90;;;;;;4970791;28;20038;-60
2022/09/25 12:03:08;;;;;;;3.10;1.20;;;25.10;75.20;;;;;;5029312;28;20033;-60
2022/09/25 12:05:40;;;;;;;2.90;1.20;;;24.50;77.10;;;;;;5029633;28;20083;-60
2022/09/25 12:08:23;;;;;;;2.33;1.00;;;24.60;75.80;;;;;;5029798;28;20037;-60
2022/09/25 12:11:10;;;;;;;3.87;1.10;;;25.30;74.40;;;;;;5029517;28;20042;-60
2022/09/25 12:13:44;;;;;;;2.42;1.10;;;24.70;76.00;;;;;;5029509;28;20279;-60
2022/09/25 12:16:45;;;;;;;1.48;1.05;;;25.90;69.00;;;;;;5029591;28;20025;-60
2022/09/25 12:19:22;;;;;;;2.97;1.30;;;24.40;69.60;;;;;;5029382;28;20100;-60
2022/09/25 12:22:19;;;;;;;2.78;1.00;;;24.00;70.30;;;;;;5029152;28;20104;-59
2022/09/25 12:25:00;;;;;;;1.75;1.00;;;24.40;72.50;;;;;;5029197;28;20107;-60
2022/09/25 12:27:42;;;;;;;2.95;1.23;;;25.70;71.50;;;;;;5029132;28;20030;-60
2022/09/25 12:30:22;;;;;;;4.68;1.10;;;24.60;73.60;;;;;;5029462;28;20496;-59
2022/09/25 12:32:57;;;;;;;3.90;1.10;;;24.10;75.40;;;;;;5028779;28;20029;-59
2022/09/25 12:35:28;;;;;;;3.05;1.20;;;23.60;77.50;;;;;;5029055;28;20034;-60
2022/09/25 12:38:13;;;;;;;1.98;1.20;;;24.20;76.60;;;;;;5065916;28;20029;-60
2022/09/25 12:40:44;;;;;;;2.33;1.10;;;23.60;78.10;;;;;;5071539;28;20029;-59
2022/09/25 12:43:13;;;;;;;2.30;1.00;;;23.50;79.10;;;;;;5071168;28;20498;-61
2022/09/25 12:45:48;;;;;;;2.45;0.95;;;24.40;76.30;;;;;;5071491;28;20101;-60
2022/09/25 12:48:25;;;;;;;2.45;1.05;;;23.50;76.70;;;;;;5076088;28;20016;-60
2022/09/25 12:51:05;;;;;;;4.28;0.90;;;24.10;75.80;;;;;;5091512;28;20089;-61
2022/09/25 12:53:46;;;;;;;1.52;0.98;;;23.80;76.10;;;;;;5091407;28;20026;-61
2022/09/25 12:56:26;;;;;;;1.52;0.95;;;23.70;76.00;;;;;;5095890;28;20028;-61
2022/09/25 12:59:14;;;;;;;1.80;1.10;;;23.70;76.90;;;;;;5095049;28;20437;-61
2022/09/25 13:01:46;;;;;;;2.50;1.00;;;23.50;78.00;;;;;;5094646;28;20070;-61
2022/09/25 13:04:49;;;;;;;1.98;1.10;;;23.40;77.80;;;;;;5095348;28;20034;-60
2022/09/25 13:07:43;;;;;;;1.80;1.08;;;23.00;80.10;;;;;;5094997;28;20129;-60
2022/09/25 13:10:35;;;;;;;2.07;1.10;;;23.10;80.30;;;;;;5094875;28;20456;-60
2022/09/25 13:13:04;;;;;;;2.53;1.00;;;23.20;78.90;;;;;;5095251;28;20095;-59
2022/09/25 13:15:34;;;;;;;2.92;1.17;;;23.00;80.00;;;;;;5094595;28;20474;-60
2022/09/25 13:18:01;;;;;;;3.28;1.10;;;22.70;80.40;;;;;;5094504;28;20024;-61
2022/09/25 13:20:27;;;;;;;2.72;1.30;;;23.00;80.80;;;;;;5094925;28;20056;-59
2022/09/25 13:23:13;;;;;;;2.20;1.23;;;22.70;82.10;;;;;;5094822;28;20048;-61
2022/09/25 13:26:08;;;;;;;2.10;1.10;;;22.80;81.30;;;;;;5094825;28;20383;-59
2022/09/25 13:28:37;;;;;;;2.97;1.20;;;23.10;81.40;;;;;;5086290;28;20387;-60
2022/09/25 13:31:20;;;;;;;2.47;1.40;;;22.90;82.90;;;;;;5094412;28;20034;-60
2022/09/25 13:33:52;;;;;;;2.65;1.15;;;22.60;84.10;;;;;;5094578;28;20485;-61
2022/09/25 13:36:22;;;;;;;2.22;1.27;;;22.50;84.70;;;;;;5094160;28;20106;-60
2022/09/25 13:41:48;;;;;;;4.18;1.30;;;22.20;84.60;;;;;;5094839;28;20035;-59